createdAt,value
2017-07-05T00:00:36.990Z,67.14
2017-07-05T00:01:36.992Z,67.43
2017-07-05T00:02:36.659Z,67.14
2017-07-05T00:03:36.662Z,67.63
2017-07-05T00:04:36.958Z,67.63
2017-07-05T00:05:36.968Z,67.24
2017-07-05T00:06:36.948Z,67.53
2017-07-05T00:07:36.962Z,67.82
2017-07-05T00:08:36.956Z,67.43
2017-07-05T00:09:36.943Z,67.82
2017-07-05T00:10:36.940Z,67.72
2017-07-05T00:11:36.624Z,67.72
2017-07-05T00:12:36.930Z,67.53
2017-07-05T00:13:36.930Z,67.24
2017-07-05T00:14:36.917Z,68.01
2017-07-05T00:15:36.599Z,68.01
2017-07-05T00:16:36.906Z,68.01
2017-07-05T00:17:36.912Z,68.01
2017-07-05T00:18:36.900Z,67.82
2017-07-05T00:19:36.902Z,68.39
2017-07-05T00:20:36.889Z,67.91
2017-07-05T00:21:36.889Z,68.13
2017-07-05T00:22:36.887Z,68.52
2017-07-05T00:23:36.561Z,68.71
2017-07-05T00:24:36.858Z,68.23
2017-07-05T00:25:36.869Z,68.71
2017-07-05T00:26:36.548Z,68.23
2017-07-05T00:27:36.849Z,68.42
2017-07-05T00:28:36.526Z,68.52
2017-07-05T00:29:36.838Z,68.52
2017-07-05T00:30:36.849Z,68.9
2017-07-05T00:31:36.833Z,68.71
2017-07-05T00:32:36.825Z,68.42
2017-07-05T00:33:36.838Z,68.62
2017-07-05T00:34:36.822Z,68.9
2017-07-05T00:35:36.822Z,68.52
2017-07-05T00:36:36.813Z,68.42
2017-07-05T00:37:36.818Z,68.71
2017-07-05T00:38:36.794Z,68.42
2017-07-05T00:39:36.799Z,68.42
2017-07-05T00:40:36.785Z,68.52
2017-07-05T00:41:36.796Z,68.62
2017-07-05T00:42:36.788Z,68.33
2017-07-05T00:43:36.772Z,68.42
2017-07-05T00:44:36.772Z,68.71
2017-07-05T00:45:36.766Z,68.71
2017-07-05T00:46:36.767Z,68.42
2017-07-05T00:47:36.754Z,68.33
2017-07-05T00:48:36.764Z,68.13
2017-07-05T00:49:36.747Z,68.23
2017-07-05T00:50:36.752Z,68.23
2017-07-05T00:51:36.730Z,68.52
2017-07-05T00:52:36.737Z,68.33
2017-07-05T00:53:36.729Z,68.52
2017-07-05T00:54:36.671Z,68.42
2017-07-05T00:55:36.729Z,68.71
2017-07-05T00:56:36.740Z,68.42
2017-07-05T00:57:36.400Z,68.9
2017-07-05T00:58:36.710Z,68.71
2017-07-05T00:59:36.695Z,68.52
2017-07-05T01:00:36.701Z,68.42
2017-07-05T01:01:36.690Z,68.62
2017-07-05T01:02:36.698Z,68.71
2017-07-05T01:03:36.681Z,68.42
2017-07-05T01:04:36.687Z,68.42
2017-07-05T01:05:36.676Z,68.62
2017-07-05T01:06:36.674Z,68.23
2017-07-05T01:07:36.348Z,68.42
2017-07-05T01:08:36.663Z,68.8
2017-07-05T01:09:36.653Z,68.71
2017-07-05T01:10:36.697Z,68.52
2017-07-05T01:11:36.651Z,68.8
2017-07-05T01:12:36.651Z,68.8
2017-07-05T01:13:36.322Z,69.38
2017-07-05T01:14:36.641Z,69.19
2017-07-05T01:15:36.621Z,69.19
2017-07-05T01:16:36.614Z,69.19
2017-07-05T01:17:36.619Z,69.19
2017-07-05T01:18:36.616Z,69.19
2017-07-05T01:19:36.613Z,69.19
2017-07-05T01:20:36.610Z,69
2017-07-05T01:21:36.590Z,68.9
2017-07-05T01:22:36.603Z,68.62
2017-07-05T01:23:36.279Z,69
2017-07-05T01:24:36.590Z,69.48
2017-07-05T01:25:36.641Z,68.9
2017-07-05T01:26:36.566Z,69.19
2017-07-05T01:27:36.258Z,68.71
2017-07-05T01:28:36.560Z,68.8
2017-07-05T01:29:36.571Z,68.9
2017-07-05T01:30:36.586Z,69
2017-07-05T01:31:36.240Z,69.19
2017-07-05T01:32:36.541Z,68.9
2017-07-05T01:33:36.535Z,69.19
2017-07-05T01:34:36.547Z,69.38
2017-07-05T01:35:36.528Z,69.29
2017-07-05T01:36:36.540Z,69.19
2017-07-05T01:37:36.516Z,69.09
2017-07-05T01:38:36.525Z,69.19
2017-07-05T01:39:36.517Z,69.29
2017-07-05T01:40:36.197Z,69.19
2017-07-05T01:41:36.498Z,69.19
2017-07-05T01:42:36.506Z,69.19
2017-07-05T01:43:36.512Z,69.19
2017-07-05T01:44:36.496Z,69.19
2017-07-05T01:45:36.489Z,69.29
2017-07-05T01:46:36.169Z,69.19
2017-07-05T01:47:36.485Z,69
2017-07-05T01:48:36.478Z,69.19
2017-07-05T01:49:36.461Z,69.29
2017-07-05T01:50:36.473Z,69
2017-07-05T01:51:36.462Z,69.29
2017-07-05T01:52:36.460Z,69.09
2017-07-05T01:53:36.455Z,69.29
2017-07-05T01:54:36.447Z,69.09
2017-07-05T01:55:36.438Z,69.38
2017-07-05T01:56:36.441Z,69.09
2017-07-05T01:57:36.433Z,69.19
2017-07-05T01:58:36.436Z,69
2017-07-05T01:59:36.425Z,69.09
2017-07-05T02:00:36.427Z,69.29
2017-07-05T02:01:36.414Z,69.29
2017-07-05T02:02:36.404Z,69.29
2017-07-05T02:03:36.412Z,69.19
2017-07-05T02:04:36.400Z,69.09
2017-07-05T02:05:36.406Z,69.29
2017-07-05T02:06:36.383Z,69.29
2017-07-05T02:07:36.391Z,69.29
2017-07-05T02:08:36.382Z,69.19
2017-07-05T02:09:36.381Z,69.38
2017-07-05T02:10:36.365Z,69.38
2017-07-05T02:11:36.375Z,69.38
2017-07-05T02:12:36.365Z,69.19
2017-07-05T02:13:36.046Z,69.19
2017-07-05T02:14:36.348Z,69.29
2017-07-05T02:15:36.037Z,69.19
2017-07-05T02:16:36.031Z,69.09
2017-07-05T02:17:36.331Z,69
2017-07-05T02:18:36.332Z,68.71
2017-07-05T02:19:36.330Z,69
2017-07-05T02:20:36.332Z,69.09
2017-07-05T02:21:36.336Z,69
2017-07-05T02:22:35.994Z,69.13
2017-07-05T02:23:35.998Z,69.23
2017-07-05T02:24:36.299Z,69.03
2017-07-05T02:25:36.304Z,69.23
2017-07-05T02:26:36.291Z,69.03
2017-07-05T02:27:36.308Z,68.84
2017-07-05T02:28:35.974Z,69.19
2017-07-05T02:29:36.292Z,69.13
2017-07-05T02:30:35.958Z,69.03
2017-07-05T02:31:36.278Z,68.17
2017-07-05T02:32:36.275Z,69.23
2017-07-05T02:33:36.272Z,68.94
2017-07-05T02:34:35.954Z,68.55
2017-07-05T02:35:36.253Z,68.46
2017-07-05T02:36:36.252Z,68.46
2017-07-05T02:37:36.248Z,68.27
2017-07-05T02:38:36.246Z,68.46
2017-07-05T02:39:36.242Z,68.36
2017-07-05T02:40:36.235Z,68.42
2017-07-05T02:41:35.921Z,68.74
2017-07-05T02:42:36.223Z,68.55
2017-07-05T02:43:36.225Z,69.42
2017-07-05T02:44:36.207Z,68.55
2017-07-05T02:45:36.213Z,68.65
2017-07-05T02:46:36.201Z,68.94
2017-07-05T02:47:36.206Z,69.23
2017-07-05T02:48:36.189Z,68.52
2017-07-05T02:49:36.199Z,69.13
2017-07-05T02:50:36.191Z,69.19
2017-07-05T02:51:36.178Z,68.62
2017-07-05T02:52:35.863Z,68.84
2017-07-05T02:53:36.183Z,68.42
2017-07-05T02:54:36.164Z,68.52
2017-07-05T02:55:36.167Z,68.71
2017-07-05T02:56:36.155Z,68.62
2017-07-05T02:57:36.157Z,69
2017-07-05T02:58:35.830Z,69.38
2017-07-05T02:59:36.189Z,69
2017-07-05T03:00:35.822Z,69.48
2017-07-05T03:01:36.143Z,69.09
2017-07-05T03:02:36.134Z,69.19
2017-07-05T03:03:35.809Z,69.09
2017-07-05T03:04:36.114Z,69.09
2017-07-05T03:05:35.808Z,69.19
2017-07-05T03:06:35.853Z,69.09
2017-07-05T03:07:36.116Z,69.19
2017-07-05T03:08:35.798Z,69.19
2017-07-05T03:09:35.794Z,69.19
2017-07-05T03:10:35.775Z,69.19
2017-07-05T03:11:35.779Z,69.19
2017-07-05T03:12:35.779Z,69.29
2017-07-05T03:13:35.774Z,69.38
2017-07-05T03:14:36.075Z,68.8
2017-07-05T03:15:35.764Z,68.42
2017-07-05T03:16:36.062Z,68.42
2017-07-05T03:17:35.755Z,68.52
2017-07-05T03:18:35.739Z,68.8
2017-07-05T03:19:36.051Z,68.62
2017-07-05T03:20:35.734Z,68.42
2017-07-05T03:21:35.738Z,68.71
2017-07-05T03:22:35.728Z,68.52
2017-07-05T03:23:36.040Z,68.9
2017-07-05T03:24:35.713Z,68.9
2017-07-05T03:25:35.710Z,68.52
2017-07-05T03:26:36.027Z,68.42
2017-07-05T03:27:35.705Z,68.8
2017-07-05T03:28:36.016Z,69.29
2017-07-05T03:29:35.688Z,69.57
2017-07-05T03:30:35.697Z,69.29
2017-07-05T03:31:35.684Z,69.09
2017-07-05T03:32:35.993Z,69
2017-07-05T03:33:35.997Z,68.71
2017-07-05T03:34:35.666Z,68.8
2017-07-05T03:35:35.668Z,68.9
2017-07-05T03:36:35.968Z,69
2017-07-05T03:37:35.976Z,68.8
2017-07-05T03:38:35.656Z,69.32
2017-07-05T03:39:35.649Z,69.19
2017-07-05T03:40:35.948Z,69.23
2017-07-05T03:41:35.644Z,69.42
2017-07-05T03:42:35.635Z,68.74
2017-07-05T03:43:35.938Z,69.13
2017-07-05T03:44:35.941Z,69.32
2017-07-05T03:45:35.620Z,68.94
2017-07-05T03:46:35.621Z,69.03
2017-07-05T03:47:35.608Z,69.03
2017-07-05T03:48:35.612Z,69.51
2017-07-05T03:49:35.601Z,69.32
2017-07-05T03:50:35.919Z,69.32
2017-07-05T03:51:35.592Z,69.32
2017-07-05T03:52:35.594Z,69.23
2017-07-05T03:53:35.888Z,69.23
2017-07-05T03:54:35.579Z,69.23
2017-07-05T03:55:35.581Z,69.45
2017-07-05T03:56:35.578Z,69.51
2017-07-05T03:57:35.567Z,69.17
2017-07-05T03:58:35.876Z,69.54
2017-07-05T03:59:35.865Z,69.54
2017-07-05T04:00:35.877Z,69.35
2017-07-05T04:01:35.542Z,69.26
2017-07-05T04:02:35.552Z,69.64
2017-07-05T04:03:35.848Z,69.64
2017-07-05T04:04:35.541Z,69.45
2017-07-05T04:05:35.838Z,69.26
2017-07-05T04:06:35.532Z,69.17
2017-07-05T04:07:35.529Z,69.35
2017-07-05T04:08:35.527Z,69.26
2017-07-05T04:09:35.507Z,69.26
2017-07-05T04:10:35.818Z,69.2
2017-07-05T04:11:35.513Z,69.29
2017-07-05T04:12:35.821Z,69.39
2017-07-05T04:13:35.813Z,69.68
2017-07-05T04:14:35.497Z,69.48
2017-07-05T04:15:35.495Z,69.39
2017-07-05T04:16:35.804Z,69.48
2017-07-05T04:17:35.489Z,69.2
2017-07-05T04:18:35.787Z,69.77
2017-07-05T04:19:35.483Z,68.95
2017-07-05T04:20:35.472Z,69.62
2017-07-05T04:21:35.468Z,69.13
2017-07-05T04:22:35.773Z,69.23
2017-07-05T04:23:35.774Z,69.42
2017-07-05T04:24:35.457Z,69.52
2017-07-05T04:25:35.773Z,69.26
2017-07-05T04:26:35.765Z,69.07
2017-07-05T04:27:35.450Z,69.17
2017-07-05T04:28:35.451Z,69.56
2017-07-05T04:29:35.439Z,68.88
2017-07-05T04:30:35.430Z,68.4
2017-07-05T04:31:35.430Z,69.01
2017-07-05T04:32:35.427Z,68.63
2017-07-05T04:33:35.428Z,68.63
2017-07-05T04:34:35.418Z,68.24
2017-07-05T04:35:35.420Z,68.15
2017-07-05T04:36:35.737Z,68.34
2017-07-05T04:37:35.731Z,68.28
2017-07-05T04:38:35.762Z,67.41
2017-07-05T04:39:35.411Z,67.61
2017-07-05T04:40:35.406Z,67.51
2017-07-05T04:41:35.400Z,67.41
2017-07-05T04:42:35.392Z,67.41
2017-07-05T04:43:35.708Z,67.61
2017-07-05T04:44:35.393Z,67.13
2017-07-05T04:45:35.391Z,67.22
2017-07-05T04:46:35.696Z,67.41
2017-07-05T04:47:35.700Z,67.13
2017-07-05T04:48:35.385Z,66.84
2017-07-05T04:49:35.690Z,67.32
2017-07-05T04:50:35.692Z,67.03
2017-07-05T04:51:35.368Z,67.13
2017-07-05T04:52:35.693Z,67.03
2017-07-05T04:53:35.747Z,67.22
2017-07-05T04:54:35.367Z,67.61
2017-07-05T04:55:35.361Z,67.7
2017-07-05T04:56:35.361Z,67.61
2017-07-05T04:57:35.347Z,67.8
2017-07-05T04:58:35.348Z,67.51
2017-07-05T04:59:35.665Z,67.61
2017-07-05T05:00:35.354Z,67.7
2017-07-05T05:01:35.666Z,67.51
2017-07-05T05:02:35.341Z,68.08
2017-07-05T05:03:35.659Z,68.08
2017-07-05T05:04:35.334Z,68.28
2017-07-05T05:05:35.337Z,68.28
2017-07-05T05:06:35.330Z,68.18
2017-07-05T05:07:35.328Z,67.99
2017-07-05T05:08:35.318Z,68.18
2017-07-05T05:09:35.641Z,68.18
2017-07-05T05:10:35.634Z,68.18
2017-07-05T05:11:35.319Z,68.18
2017-07-05T05:12:35.309Z,67.9
2017-07-05T05:13:35.636Z,68.57
2017-07-05T05:14:35.306Z,68.57
2017-07-05T05:15:35.306Z,68.47
2017-07-05T05:16:35.623Z,68.47
2017-07-05T05:17:35.615Z,68.57
2017-07-05T05:18:35.293Z,67.9
2017-07-05T05:19:35.293Z,68.08
2017-07-05T05:20:35.607Z,67.99
2017-07-05T05:21:35.608Z,67.9
2017-07-05T05:22:35.285Z,68.57
2017-07-05T05:23:35.614Z,68.47
2017-07-05T05:24:35.273Z,67.9
2017-07-05T05:25:35.597Z,67.8
2017-07-05T05:26:35.579Z,68.18
2017-07-05T05:27:35.269Z,68.28
2017-07-05T05:28:35.614Z,68.28
2017-07-05T05:29:35.584Z,68.08
2017-07-05T05:30:35.263Z,67.8
2017-07-05T05:31:35.262Z,67.99
2017-07-05T05:32:35.561Z,67.8
2017-07-05T05:33:35.253Z,67.9
2017-07-05T05:34:35.575Z,68.66
2017-07-05T05:35:35.249Z,68.28
2017-07-05T05:36:35.254Z,67.61
2017-07-05T05:37:35.243Z,67.9
2017-07-05T05:38:35.243Z,68.76
2017-07-05T05:39:35.232Z,68.28
2017-07-05T05:40:35.539Z,68.08
2017-07-05T05:41:35.237Z,67.9
2017-07-05T05:42:35.222Z,68.28
2017-07-05T05:43:35.538Z,67.99
2017-07-05T05:44:35.219Z,67.99
2017-07-05T05:45:35.224Z,68.08
2017-07-05T05:46:35.537Z,67.9
2017-07-05T05:47:35.534Z,67.9
2017-07-05T05:48:35.529Z,68.28
2017-07-05T05:49:35.207Z,68.66
2017-07-05T05:50:35.214Z,68.76
2017-07-05T05:51:35.511Z,68.66
2017-07-05T05:52:35.533Z,68.44
2017-07-05T05:53:35.517Z,68.47
2017-07-05T05:54:35.202Z,68.37
2017-07-05T05:55:35.189Z,68.82
2017-07-05T05:56:35.508Z,68.63
2017-07-05T05:57:35.501Z,68.91
2017-07-05T05:58:35.502Z,68.73
2017-07-05T05:59:35.501Z,68.91
2017-07-05T06:00:35.502Z,68.63
2017-07-05T06:01:35.486Z,68.73
2017-07-05T06:02:35.171Z,68.44
2017-07-05T06:03:35.489Z,68.82
2017-07-05T06:04:35.484Z,68.34
2017-07-05T06:05:35.495Z,68.82
2017-07-05T06:06:35.487Z,69.2
2017-07-05T06:07:35.483Z,68.53
2017-07-05T06:08:35.477Z,69.2
2017-07-05T06:09:35.472Z,69.4
2017-07-05T06:10:35.470Z,68.34
2017-07-05T06:11:35.465Z,69.3
2017-07-05T06:12:35.470Z,69.01
2017-07-05T06:13:35.452Z,68.53
2017-07-05T06:14:35.456Z,69.3
2017-07-05T06:15:35.449Z,68.34
2017-07-05T06:16:35.453Z,68.82
2017-07-05T06:17:35.450Z,68.79
2017-07-05T06:18:35.441Z,68.5
2017-07-05T06:19:35.440Z,69.17
2017-07-05T06:20:35.448Z,68.5
2017-07-05T06:21:35.438Z,68.4
2017-07-05T06:22:35.425Z,69.17
2017-07-05T06:23:35.428Z,68.75
2017-07-05T06:24:35.425Z,69.52
2017-07-05T06:25:35.425Z,68.37
2017-07-05T06:26:35.411Z,68.56
2017-07-05T06:27:35.417Z,68.46
2017-07-05T06:28:35.411Z,69.23
2017-07-05T06:29:35.410Z,67.76
2017-07-05T06:30:35.407Z,68.08
2017-07-05T06:31:35.408Z,68.27
2017-07-05T06:32:35.420Z,67.76
2017-07-05T06:33:35.079Z,67.57
2017-07-05T06:34:35.396Z,67.09
2017-07-05T06:35:35.397Z,67.66
2017-07-05T06:36:35.386Z,67.18
2017-07-05T06:37:35.383Z,66.22
2017-07-05T06:38:35.370Z,66.32
2017-07-05T06:39:35.383Z,66.77
2017-07-05T06:40:35.363Z,66.67
2017-07-05T06:41:35.373Z,67.15
2017-07-05T06:42:35.362Z,67.54
2017-07-05T06:43:35.367Z,66.58
2017-07-05T06:44:35.350Z,66.38
2017-07-05T06:45:35.658Z,66.29
2017-07-05T06:46:35.344Z,66.19
2017-07-05T06:47:35.032Z,66.58
2017-07-05T06:48:35.342Z,66.29
2017-07-05T06:49:35.390Z,66.09
2017-07-05T06:50:35.343Z,66.09
2017-07-05T06:51:35.017Z,66.19
2017-07-05T06:52:35.011Z,66.09
2017-07-05T06:53:35.322Z,65.52
2017-07-05T06:54:35.320Z,65.05
2017-07-05T06:55:35.318Z,64.76
2017-07-05T06:56:35.304Z,64.28
2017-07-05T06:57:35.312Z,63.89
2017-07-05T06:58:35.302Z,63.03
2017-07-05T06:59:35.311Z,62.74
2017-07-05T07:00:35.294Z,63
2017-07-05T07:01:35.301Z,62.9
2017-07-05T07:02:35.288Z,63.1
2017-07-05T07:03:35.282Z,62.52
2017-07-05T07:04:35.278Z,62.62
2017-07-05T07:05:35.277Z,62.23
2017-07-05T07:06:35.281Z,62.2
2017-07-05T07:07:35.272Z,62.4
2017-07-05T07:08:34.946Z,62.01
2017-07-05T07:09:35.256Z,62.4
2017-07-05T07:10:35.262Z,62.59
2017-07-05T07:11:35.252Z,62.49
2017-07-05T07:12:35.252Z,62.4
2017-07-05T07:13:35.246Z,62.4
2017-07-05T07:14:35.249Z,63.16
2017-07-05T07:15:34.913Z,62.4
2017-07-05T07:16:35.236Z,63.06
2017-07-05T07:17:35.227Z,62.77
2017-07-05T07:18:34.911Z,62.87
2017-07-05T07:19:34.906Z,62.49
2017-07-05T07:20:34.900Z,63.16
2017-07-05T07:21:35.203Z,63.26
2017-07-05T07:22:34.893Z,62.97
2017-07-05T07:23:34.885Z,62.87
2017-07-05T07:24:35.194Z,63.16
2017-07-05T07:25:35.182Z,63.45
2017-07-05T07:26:35.194Z,63.06
2017-07-05T07:27:35.181Z,63.16
2017-07-05T07:28:35.191Z,63.26
2017-07-05T07:29:34.855Z,63.16
2017-07-05T07:30:35.173Z,63.26
2017-07-05T07:31:35.166Z,64.02
2017-07-05T07:32:35.165Z,63.93
2017-07-05T07:33:34.837Z,63.73
2017-07-05T07:34:35.160Z,63.76
2017-07-05T07:35:35.158Z,63.86
2017-07-05T07:36:35.151Z,64.05
2017-07-05T07:37:35.133Z,63.96
2017-07-05T07:38:35.133Z,64.43
2017-07-05T07:39:35.146Z,63.96
2017-07-05T07:40:35.145Z,63.8
2017-07-05T07:41:35.138Z,63.7
2017-07-05T07:42:35.125Z,63.13
2017-07-05T07:43:35.131Z,63.8
2017-07-05T07:44:34.801Z,63.03
2017-07-05T07:45:35.114Z,62.9
2017-07-05T07:46:34.794Z,62.23
2017-07-05T07:47:35.115Z,63.19
2017-07-05T07:48:35.105Z,62.52
2017-07-05T07:49:35.098Z,62.62
2017-07-05T07:50:34.789Z,63.57
2017-07-05T07:51:34.777Z,62.43
2017-07-05T07:52:35.094Z,62.81
2017-07-05T07:53:34.766Z,62.49
2017-07-05T07:54:35.087Z,62.68
2017-07-05T07:55:35.087Z,63.45
2017-07-05T07:56:34.761Z,63.26
2017-07-05T07:57:34.760Z,63.26
2017-07-05T07:58:34.746Z,63.45
2017-07-05T07:59:35.066Z,63.93
2017-07-05T08:00:34.748Z,63.93
2017-07-05T08:01:35.058Z,63.16
2017-07-05T08:02:34.737Z,63.42
2017-07-05T08:03:35.037Z,64.28
2017-07-05T08:04:35.042Z,64.47
2017-07-05T08:05:35.037Z,64.4
2017-07-05T08:06:35.043Z,64.22
2017-07-05T08:07:35.036Z,63.83
2017-07-05T08:08:35.041Z,64.12
2017-07-05T08:09:35.016Z,63.93
2017-07-05T08:10:35.015Z,63.73
2017-07-05T08:11:35.017Z,63.26
2017-07-05T08:12:34.698Z,63.54
2017-07-05T08:13:34.998Z,63.64
2017-07-05T08:14:35.012Z,63.42
2017-07-05T08:15:35.002Z,63.73
2017-07-05T08:16:34.683Z,63.35
2017-07-05T08:17:34.993Z,63.83
2017-07-05T08:18:34.992Z,63.26
2017-07-05T08:19:34.980Z,62.97
2017-07-05T08:20:34.975Z,63.45
2017-07-05T08:21:34.959Z,64.22
2017-07-05T08:22:34.654Z,63.06
2017-07-05T08:23:34.650Z,63.26
2017-07-05T08:24:34.957Z,63.54
2017-07-05T08:25:34.637Z,63.73
2017-07-05T08:26:34.635Z,63.93
2017-07-05T08:27:34.944Z,63.73
2017-07-05T08:28:34.945Z,64.12
2017-07-05T08:29:34.947Z,63.35
2017-07-05T08:30:34.616Z,63.64
2017-07-05T08:31:34.928Z,64.5
2017-07-05T08:32:34.604Z,64.31
2017-07-05T08:33:34.927Z,64.82
2017-07-05T08:34:34.904Z,64.82
2017-07-05T08:35:34.911Z,64.72
2017-07-05T08:36:34.909Z,64.05
2017-07-05T08:37:34.906Z,64.09
2017-07-05T08:38:34.898Z,63.99
2017-07-05T08:39:34.578Z,64.37
2017-07-05T08:40:34.892Z,64.09
2017-07-05T08:41:34.877Z,63.92
2017-07-05T08:42:34.871Z,63.45
2017-07-05T08:43:34.561Z,63.92
2017-07-05T08:44:34.883Z,64.02
2017-07-05T08:45:34.557Z,63.86
2017-07-05T08:46:34.859Z,63.29
2017-07-05T08:47:34.861Z,63.09
2017-07-05T08:48:34.849Z,63.12
2017-07-05T08:49:34.860Z,62.65
2017-07-05T08:50:34.534Z,62.65
2017-07-05T08:51:34.863Z,62.65
2017-07-05T08:52:34.851Z,62.07
2017-07-05T08:53:34.850Z,61.62
2017-07-05T08:54:34.833Z,61.62
2017-07-05T08:55:34.853Z,62.48
2017-07-05T08:56:34.522Z,62.71
2017-07-05T08:57:34.835Z,62.42
2017-07-05T08:58:34.844Z,62.55
2017-07-05T08:59:34.828Z,62.55
2017-07-05T09:00:34.826Z,63.32
2017-07-05T09:01:34.503Z,63.41
2017-07-05T09:02:34.828Z,63.54
2017-07-05T09:03:34.822Z,62.87
2017-07-05T09:04:34.806Z,64.12
2017-07-05T09:05:34.506Z,64.02
2017-07-05T09:06:34.814Z,64.79
2017-07-05T09:07:34.817Z,64.92
2017-07-05T09:08:34.805Z,65.5
2017-07-05T09:09:34.814Z,65.97
2017-07-05T09:10:34.813Z,66.55
2017-07-05T09:11:34.808Z,66.27
2017-07-05T09:12:34.800Z,66.1
2017-07-05T09:13:34.494Z,65.63
2017-07-05T09:14:34.802Z,67.07
2017-07-05T09:15:34.482Z,67.39
2017-07-05T09:16:34.795Z,68.35
2017-07-05T09:17:34.788Z,67.97
2017-07-05T09:18:34.797Z,67.58
2017-07-05T09:19:34.791Z,67.03
2017-07-05T09:20:34.801Z,68.58
2017-07-05T09:21:34.787Z,68.04
2017-07-05T09:22:34.481Z,67.84
2017-07-05T09:23:34.787Z,67.94
2017-07-05T09:24:34.796Z,67.88
2017-07-05T09:25:34.794Z,67.78
2017-07-05T09:26:34.802Z,67.88
2017-07-05T09:27:34.800Z,67.52
2017-07-05T09:28:34.797Z,67.14
2017-07-05T09:29:34.470Z,68.01
2017-07-05T09:30:34.801Z,66.59
2017-07-05T09:31:34.790Z,67.17
2017-07-05T09:32:34.795Z,67.36
2017-07-05T09:33:34.791Z,66.33
2017-07-05T09:34:34.808Z,67.01
2017-07-05T09:35:34.487Z,65.17
2017-07-05T09:36:34.802Z,65.08
2017-07-05T09:37:34.792Z,65.5
2017-07-05T09:38:34.807Z,66.17
2017-07-05T09:39:34.801Z,65.5
2017-07-05T09:40:34.819Z,65.14
2017-07-05T09:41:34.803Z,65.08
2017-07-05T09:42:35.194Z,64.5
2017-07-05T09:43:34.828Z,64.01
2017-07-05T09:44:34.819Z,62.4
2017-07-05T09:45:34.831Z,62.24
2017-07-05T09:46:34.828Z,63.01
2017-07-05T09:47:34.815Z,61.56
2017-07-05T09:48:34.818Z,62.07
2017-07-05T09:49:34.819Z,60.33
2017-07-05T09:50:34.517Z,59.3
2017-07-05T09:51:34.516Z,58.04
2017-07-05T09:52:34.843Z,57
2017-07-05T09:53:34.835Z,56.64
2017-07-05T09:54:34.851Z,54.6
2017-07-05T09:55:34.852Z,54.24
2017-07-05T09:56:34.856Z,53.75
2017-07-05T09:57:34.546Z,53.47
2017-07-05T09:58:34.548Z,53.39
2017-07-05T09:59:34.874Z,52.52
2017-07-05T10:00:34.556Z,52.03
2017-07-05T10:01:34.573Z,51.65
2017-07-05T10:02:34.896Z,50.19
2017-07-05T10:03:34.894Z,48.35
2017-07-05T10:04:34.899Z,47.88
2017-07-05T10:05:34.893Z,49.02
2017-07-05T10:06:34.910Z,47.96
2017-07-05T10:07:34.909Z,46.5
2017-07-05T10:08:34.926Z,46.79
2017-07-05T10:09:34.920Z,47.28
2017-07-05T10:10:34.937Z,47.47
2017-07-05T10:11:34.614Z,47.57
2017-07-05T10:12:34.946Z,46.6
2017-07-05T10:13:34.930Z,46.62
2017-07-05T10:14:34.950Z,45.36
2017-07-05T10:15:34.640Z,45.28
2017-07-05T10:16:34.957Z,44.51
2017-07-05T10:17:34.961Z,43.82
2017-07-05T10:18:34.956Z,42.87
2017-07-05T10:19:34.972Z,42.29
2017-07-05T10:20:34.984Z,41.8
2017-07-05T10:21:34.981Z,41.53
2017-07-05T10:22:34.995Z,41.44
2017-07-05T10:23:34.993Z,41.24
2017-07-05T10:24:35.008Z,40.75
2017-07-05T10:25:34.996Z,40.75
2017-07-05T10:26:34.705Z,40.56
2017-07-05T10:27:34.701Z,40
2017-07-05T10:28:35.036Z,39.98
2017-07-05T10:29:35.037Z,40.08
2017-07-05T10:30:35.044Z,40.37
2017-07-05T10:31:34.731Z,40.56
2017-07-05T10:32:34.734Z,41.13
2017-07-05T10:33:34.732Z,40.44
2017-07-05T10:34:35.055Z,41.03
2017-07-05T10:35:34.753Z,40.54
2017-07-05T10:36:35.074Z,40.52
2017-07-05T10:37:35.086Z,40.62
2017-07-05T10:38:35.077Z,40.52
2017-07-05T10:39:34.775Z,40.81
2017-07-05T10:40:34.826Z,41.47
2017-07-05T10:41:35.104Z,41.36
2017-07-05T10:42:35.101Z,42.23
2017-07-05T10:43:35.120Z,43.4
2017-07-05T10:44:35.117Z,43.86
2017-07-05T10:45:35.123Z,43.49
2017-07-05T10:46:35.123Z,43.1
2017-07-05T10:47:34.822Z,42.61
2017-07-05T10:48:34.827Z,42.81
2017-07-05T10:49:35.139Z,42.05
2017-07-05T10:50:34.832Z,41.67
2017-07-05T10:51:35.158Z,41.67
2017-07-05T10:52:35.160Z,41.49
2017-07-05T10:53:34.849Z,41.88
2017-07-05T10:54:34.851Z,41.78
2017-07-05T10:55:34.863Z,41.78
2017-07-05T10:56:34.864Z,41.88
2017-07-05T10:57:35.197Z,42.35
2017-07-05T10:58:35.182Z,42.44
2017-07-05T10:59:35.206Z,42.15
2017-07-05T11:00:34.933Z,41.57
2017-07-05T11:01:35.216Z,41.38
2017-07-05T11:02:35.203Z,41.18
2017-07-05T11:03:35.218Z,41.18
2017-07-05T11:04:34.901Z,41.18
2017-07-05T11:05:35.234Z,41.28
2017-07-05T11:06:35.236Z,40.62
2017-07-05T11:07:35.245Z,40.52
2017-07-05T11:08:35.230Z,40.72
2017-07-05T11:09:35.241Z,40.73
2017-07-05T11:10:35.259Z,40.25
2017-07-05T11:11:35.261Z,39.86
2017-07-05T11:12:35.262Z,40.15
2017-07-05T11:13:35.273Z,40.42
2017-07-05T11:14:35.266Z,40.62
2017-07-05T11:15:35.287Z,40.52
2017-07-05T11:16:35.289Z,40.62
2017-07-05T11:17:35.293Z,40.72
2017-07-05T11:18:35.285Z,40.52
2017-07-05T11:19:35.294Z,40.72
2017-07-05T11:20:34.987Z,40.52
2017-07-05T11:21:34.995Z,40.6
2017-07-05T11:22:35.313Z,40.99
2017-07-05T11:23:34.996Z,41.57
2017-07-05T11:24:35.316Z,41.47
2017-07-05T11:25:35.332Z,41.28
2017-07-05T11:26:35.015Z,41.47
2017-07-05T11:27:35.340Z,41.2
2017-07-05T11:28:35.341Z,41.2
2017-07-05T11:29:35.033Z,41.2
2017-07-05T11:30:35.344Z,41.49
2017-07-05T11:31:35.362Z,41.42
2017-07-05T11:32:35.039Z,41.32
2017-07-05T11:33:35.374Z,41.03
2017-07-05T11:34:35.056Z,40.47
2017-07-05T11:35:35.368Z,39.59
2017-07-05T11:36:35.383Z,38.91
2017-07-05T11:37:35.398Z,39.8
2017-07-05T11:38:35.384Z,39.12
2017-07-05T11:39:35.399Z,37.76
2017-07-05T11:40:35.414Z,36.71
2017-07-05T11:41:35.418Z,36.32
2017-07-05T11:42:35.408Z,35.05
2017-07-05T11:43:35.440Z,35.44
2017-07-05T11:44:35.422Z,36.32
2017-07-05T11:45:35.443Z,36.12
2017-07-05T11:46:35.433Z,36.8
2017-07-05T11:47:35.450Z,37.1
2017-07-05T11:48:35.452Z,36.4
2017-07-05T11:49:35.459Z,36.1
2017-07-05T11:50:35.467Z,36.22
2017-07-05T11:51:35.164Z,36.61
2017-07-05T11:52:35.160Z,37.1
2017-07-05T11:53:35.492Z,37.48
2017-07-05T11:54:35.179Z,36.71
2017-07-05T11:55:35.177Z,36.04
2017-07-05T11:56:35.501Z,35.26
2017-07-05T11:57:35.510Z,34.97
2017-07-05T11:58:35.515Z,35.53
2017-07-05T11:59:35.525Z,36.2
2017-07-05T12:00:35.534Z,36.4
2017-07-05T12:01:35.524Z,36.96
2017-07-05T12:02:35.552Z,37.06
2017-07-05T12:03:35.235Z,37.35
2017-07-05T12:04:35.233Z,37.43
2017-07-05T12:05:35.248Z,37.52
2017-07-05T12:06:35.245Z,37.72
2017-07-05T12:07:35.566Z,37.92
2017-07-05T12:08:35.262Z,37.34
2017-07-05T12:09:35.584Z,37.52
2017-07-05T12:10:35.282Z,37.62
2017-07-05T12:11:35.591Z,37.62
2017-07-05T12:12:35.290Z,37.72
2017-07-05T12:13:35.608Z,37.26
2017-07-05T12:14:35.304Z,36.57
2017-07-05T12:15:35.615Z,36.96
2017-07-05T12:16:35.324Z,36.77
2017-07-05T12:17:35.323Z,37.35
2017-07-05T12:18:35.327Z,36.87
2017-07-05T12:19:35.647Z,37.26
2017-07-05T12:20:35.345Z,37.62
2017-07-05T12:21:35.650Z,38.29
2017-07-05T12:22:35.671Z,38.77
2017-07-05T12:23:35.681Z,38.57
2017-07-05T12:24:35.368Z,37.62
2017-07-05T12:25:35.364Z,38.48
2017-07-05T12:26:35.684Z,37.6
2017-07-05T12:27:35.387Z,38.29
2017-07-05T12:28:35.705Z,38.17
2017-07-05T12:29:35.390Z,38.65
2017-07-05T12:30:35.434Z,39.51
2017-07-05T12:31:35.408Z,40.39
2017-07-05T12:32:35.733Z,40.56
2017-07-05T12:33:35.420Z,40.17
2017-07-05T12:34:35.428Z,40.48
2017-07-05T12:35:35.421Z,40.58
2017-07-05T12:36:35.440Z,40.67
2017-07-05T12:37:35.434Z,39.03
2017-07-05T12:38:35.770Z,39.04
2017-07-05T12:39:35.447Z,39.32
2017-07-05T12:40:35.460Z,40.09
2017-07-05T12:41:35.768Z,40.08
2017-07-05T12:42:35.462Z,40.66
2017-07-05T12:43:35.790Z,40.34
2017-07-05T12:44:35.791Z,40.34
2017-07-05T12:45:35.798Z,40.34
2017-07-05T12:46:35.478Z,40.73
2017-07-05T12:47:35.801Z,40.64
2017-07-05T12:48:35.810Z,41.2
2017-07-05T12:49:35.823Z,41.3
2017-07-05T12:50:35.819Z,41.58
2017-07-05T12:51:35.831Z,42.36
2017-07-05T12:52:35.828Z,42.82
2017-07-05T12:53:35.835Z,43.12
2017-07-05T12:54:35.521Z,42.72
2017-07-05T12:55:35.531Z,42.46
2017-07-05T12:56:35.785Z,42.26
2017-07-05T12:57:35.850Z,41.8